Portada
METAR-TAF:

METAR-TAF

Aeroports :

Ciudad Obregón, Mèxic

latitud: 27-24N, longitud: 109-50W, altitud: 62 m

Observació

L'informe es va fer fa 10 hores i 57 minuts, a les 00:42 UTC
Vent 10 kt del Sud/Sud-Oest
Temperatura 29°C
Humitat 37%
Pressió 1007 hPa
Visibilitat: 16.1 km
Cel clar

METAR: MMCN 250042Z 20010KT 10SM SKC 29/13 A2974 RMK HZY

Hora: 04:39 (11:39 UTC)

Pronòstic

L'informe es va fer fa 7 hores i 12 minuts, a les 04:27 UTC
Pronòstic vàlid del 25 a les 06 UTC al 26 a les 06 UTC
Vent 5 kt del Sud/Sud-Oest
Visibilitat: 10 km
Núvols disperses a una alçada de 25000 ft
A partir de les 25 a les 1800 UTC
Vent 12 kt del Sud-Oest
Visibilitat: 10 km
Núvols disperses a una alçada de 25000 ft
A partir de les 26 a les 0200 UTC
Vent 5 kt del Sud-Oest
Visibilitat: 10 km
Núvols disperses a una alçada de 25000 ft

TAF: MMCN 250427Z 2506/2606 20005KT P6SM SCT250 FM251800 22012KT P6SM SCT250 FM260200 23005KT P6SM SCT250

Observacions i pronòstics meteorològics de més de 4000 aeroports (METAR i TAF).

Les estacions disponibles són els punts grocs i vermells al mapa.

Posi el ratolí al punt desitjat per veure el nom de l'estació.

Feu clic per veure les observacions i els pronòstics meteorològics.

Per canviar el mapa: feu clic els botons verds amb una creu de color negre per apropar; al botó verd amb un guió per allunyar la imatge; o en les fletxes verdes per a mapes adjacents.


METAR-TAF: